sensor_id;sensor_type;location;lat;lon;timestamp;P1;durP1;ratioP1;P2;durP2;ratioP2
1414;SDS011;702;49.466;11.086;2023-11-19T00:02:25;6.27;;;5.43;;
1414;SDS011;702;49.466;11.086;2023-11-19T00:04:52;6.97;;;6.27;;
1414;SDS011;702;49.466;11.086;2023-11-19T00:07:20;6.77;;;5.60;;
1414;SDS011;702;49.466;11.086;2023-11-19T00:09:47;5.83;;;5.27;;
1414;SDS011;702;49.466;11.086;2023-11-19T00:12:15;7.80;;;5.97;;
1414;SDS011;702;49.466;11.086;2023-11-19T00:14:45;6.27;;;5.40;;
1414;SDS011;702;49.466;11.086;2023-11-19T00:17:12;7.50;;;6.10;;
1414;SDS011;702;49.466;11.086;2023-11-19T00:19:42;6.20;;;5.60;;
1414;SDS011;702;49.466;11.086;2023-11-19T00:22:09;6.97;;;6.27;;
1414;SDS011;702;49.466;11.086;2023-11-19T00:24:36;6.27;;;5.67;;
1414;SDS011;702;49.466;11.086;2023-11-19T00:27:04;8.10;;;6.30;;
1414;SDS011;702;49.466;11.086;2023-11-19T00:29:33;6.93;;;5.80;;
1414;SDS011;702;49.466;11.086;2023-11-19T00:32:02;7.43;;;5.93;;
1414;SDS011;702;49.466;11.086;2023-11-19T00:34:30;7.60;;;6.90;;
1414;SDS011;702;49.466;11.086;2023-11-19T00:36:58;7.70;;;6.50;;
1414;SDS011;702;49.466;11.086;2023-11-19T00:39:25;8.87;;;6.70;;
1414;SDS011;702;49.466;11.086;2023-11-19T00:41:52;6.77;;;6.07;;
1414;SDS011;702;49.466;11.086;2023-11-19T00:44:19;6.70;;;6.10;;
1414;SDS011;702;49.466;11.086;2023-11-19T00:46:50;7.50;;;6.00;;
1414;SDS011;702;49.466;11.086;2023-11-19T00:49:19;6.83;;;6.10;;
1414;SDS011;702;49.466;11.086;2023-11-19T00:51:46;7.07;;;6.40;;
1414;SDS011;702;49.466;11.086;2023-11-19T00:54:14;7.77;;;7.00;;
1414;SDS011;702;49.466;11.086;2023-11-19T00:56:41;6.93;;;5.77;;
1414;SDS011;702;49.466;11.086;2023-11-19T00:59:08;6.60;;;6.00;;
1414;SDS011;702;49.466;11.086;2023-11-19T01:01:37;8.23;;;6.20;;
1414;SDS011;702;49.466;11.086;2023-11-19T01:04:04;6.30;;;5.43;;
1414;SDS011;702;49.466;11.086;2023-11-19T01:06:33;7.43;;;6.53;;
1414;SDS011;702;49.466;11.086;2023-11-19T01:09:00;6.90;;;6.20;;
1414;SDS011;702;49.466;11.086;2023-11-19T01:11:28;8.93;;;6.93;;
1414;SDS011;702;49.466;11.086;2023-11-19T01:13:55;7.87;;;6.40;;
1414;SDS011;702;49.466;11.086;2023-11-19T01:16:22;6.30;;;5.80;;
1414;SDS011;702;49.466;11.086;2023-11-19T01:18:50;7.00;;;6.20;;
1414;SDS011;702;49.466;11.086;2023-11-19T01:21:17;6.63;;;6.03;;
1414;SDS011;702;49.466;11.086;2023-11-19T01:23:46;7.53;;;5.47;;
1414;SDS011;702;49.466;11.086;2023-11-19T01:26:14;6.60;;;6.00;;
1414;SDS011;702;49.466;11.086;2023-11-19T01:28:41;7.03;;;6.30;;
1414;SDS011;702;49.466;11.086;2023-11-19T01:31:10;6.70;;;6.00;;
1414;SDS011;702;49.466;11.086;2023-11-19T01:33:37;6.93;;;6.07;;
1414;SDS011;702;49.466;11.086;2023-11-19T01:36:05;8.20;;;6.77;;
1414;SDS011;702;49.466;11.086;2023-11-19T01:38:34;8.87;;;6.80;;
1414;SDS011;702;49.466;11.086;2023-11-19T01:41:02;7.03;;;5.83;;
1414;SDS011;702;49.466;11.086;2023-11-19T01:43:31;6.70;;;5.87;;
1414;SDS011;702;49.466;11.086;2023-11-19T01:45:59;6.20;;;5.70;;
1414;SDS011;702;49.466;11.086;2023-11-19T01:48:27;7.60;;;6.03;;
1414;SDS011;702;49.466;11.086;2023-11-19T01:50:54;6.23;;;5.57;;
1414;SDS011;702;49.466;11.086;2023-11-19T01:53:23;6.23;;;5.63;;
1414;SDS011;702;49.466;11.086;2023-11-19T01:55:51;7.53;;;6.83;;
1414;SDS011;702;49.466;11.086;2023-11-19T01:58:20;7.20;;;6.50;;
1414;SDS011;702;49.466;11.086;2023-11-19T02:00:47;6.77;;;6.07;;
1414;SDS011;702;49.466;11.086;2023-11-19T02:03:14;6.73;;;6.13;;
1414;SDS011;702;49.466;11.086;2023-11-19T02:05:43;6.70;;;6.10;;
1414;SDS011;702;49.466;11.086;2023-11-19T02:08:10;7.03;;;6.33;;
1414;SDS011;702;49.466;11.086;2023-11-19T02:10:38;7.23;;;6.30;;
1414;SDS011;702;49.466;11.086;2023-11-19T02:13:06;10.60;;;7.90;;
1414;SDS011;702;49.466;11.086;2023-11-19T02:15:34;10.00;;;8.37;;
1414;SDS011;702;49.466;11.086;2023-11-19T02:18:17;7.30;;;6.60;;
1414;SDS011;702;49.466;11.086;2023-11-19T02:20:49;8.10;;;7.17;;
1414;SDS011;702;49.466;11.086;2023-11-19T02:23:16;7.50;;;6.33;;
1414;SDS011;702;49.466;11.086;2023-11-19T02:25:47;7.30;;;6.60;;
1414;SDS011;702;49.466;11.086;2023-11-19T02:28:30;7.20;;;6.57;;
1414;SDS011;702;49.466;11.086;2023-11-19T02:30:58;7.03;;;6.33;;
1414;SDS011;702;49.466;11.086;2023-11-19T02:33:25;7.57;;;6.77;;
1414;SDS011;702;49.466;11.086;2023-11-19T02:35:52;7.30;;;6.60;;
1414;SDS011;702;49.466;11.086;2023-11-19T02:38:19;7.97;;;7.17;;
1414;SDS011;702;49.466;11.086;2023-11-19T02:40:47;7.57;;;6.67;;
1414;SDS011;702;49.466;11.086;2023-11-19T02:43:15;7.10;;;6.40;;
1414;SDS011;702;49.466;11.086;2023-11-19T02:45:44;9.20;;;7.13;;
1414;SDS011;702;49.466;11.086;2023-11-19T02:48:12;7.17;;;6.47;;
1414;SDS011;702;49.466;11.086;2023-11-19T02:50:39;7.97;;;7.00;;
1414;SDS011;702;49.466;11.086;2023-11-19T02:53:06;8.67;;;7.70;;
1414;SDS011;702;49.466;11.086;2023-11-19T02:55:35;9.43;;;6.83;;
1414;SDS011;702;49.466;11.086;2023-11-19T02:58:06;7.50;;;6.70;;
1414;SDS011;702;49.466;11.086;2023-11-19T03:00:46;9.10;;;7.47;;
1414;SDS011;702;49.466;11.086;2023-11-19T03:03:17;8.10;;;7.30;;
1414;SDS011;702;49.466;11.086;2023-11-19T03:05:46;9.50;;;7.80;;
1414;SDS011;702;49.466;11.086;2023-11-19T03:08:13;10.50;;;8.90;;
1414;SDS011;702;49.466;11.086;2023-11-19T03:10:41;10.13;;;7.60;;
1414;SDS011;702;49.466;11.086;2023-11-19T03:13:10;9.70;;;8.60;;
1414;SDS011;702;49.466;11.086;2023-11-19T03:15:40;7.90;;;7.10;;
1414;SDS011;702;49.466;11.086;2023-11-19T03:18:09;9.27;;;7.33;;
1414;SDS011;702;49.466;11.086;2023-11-19T03:20:36;9.30;;;7.90;;
1414;SDS011;702;49.466;11.086;2023-11-19T03:23:03;8.13;;;6.63;;
1414;SDS011;702;49.466;11.086;2023-11-19T03:25:31;9.53;;;7.83;;
1414;SDS011;702;49.466;11.086;2023-11-19T03:28:00;8.73;;;7.83;;
1414;SDS011;702;49.466;11.086;2023-11-19T03:30:27;9.23;;;7.60;;
1414;SDS011;702;49.466;11.086;2023-11-19T03:32:54;9.17;;;7.90;;
1414;SDS011;702;49.466;11.086;2023-11-19T03:35:24;9.47;;;8.03;;
1414;SDS011;702;49.466;11.086;2023-11-19T03:37:53;10.00;;;7.80;;
1414;SDS011;702;49.466;11.086;2023-11-19T03:40:21;9.03;;;7.30;;
1414;SDS011;702;49.466;11.086;2023-11-19T03:42:49;9.67;;;7.80;;
1414;SDS011;702;49.466;11.086;2023-11-19T03:45:16;11.17;;;8.13;;
1414;SDS011;702;49.466;11.086;2023-11-19T03:47:43;11.40;;;8.40;;
1414;SDS011;702;49.466;11.086;2023-11-19T03:50:11;9.50;;;8.20;;
1414;SDS011;702;49.466;11.086;2023-11-19T03:52:42;9.93;;;8.03;;
1414;SDS011;702;49.466;11.086;2023-11-19T03:55:10;10.33;;;7.70;;
1414;SDS011;702;49.466;11.086;2023-11-19T03:57:37;10.70;;;8.97;;
1414;SDS011;702;49.466;11.086;2023-11-19T04:00:05;12.70;;;9.53;;
1414;SDS011;702;49.466;11.086;2023-11-19T04:02:35;11.00;;;9.20;;
1414;SDS011;702;49.466;11.086;2023-11-19T04:05:03;14.20;;;10.53;;
1414;SDS011;702;49.466;11.086;2023-11-19T04:07:32;12.33;;;10.20;;
1414;SDS011;702;49.466;11.086;2023-11-19T04:10:00;11.93;;;10.03;;
1414;SDS011;702;49.466;11.086;2023-11-19T04:12:28;13.83;;;10.17;;
1414;SDS011;702;49.466;11.086;2023-11-19T04:14:55;12.37;;;9.83;;
1414;SDS011;702;49.466;11.086;2023-11-19T04:17:22;11.67;;;10.27;;
1414;SDS011;702;49.466;11.086;2023-11-19T04:19:50;15.47;;;10.83;;
1414;SDS011;702;49.466;11.086;2023-11-19T04:22:17;11.63;;;10.40;;
1414;SDS011;702;49.466;11.086;2023-11-19T04:24:44;12.93;;;9.90;;
1414;SDS011;702;49.466;11.086;2023-11-19T04:27:13;12.00;;;9.80;;
1414;SDS011;702;49.466;11.086;2023-11-19T04:29:40;14.50;;;11.23;;
1414;SDS011;702;49.466;11.086;2023-11-19T04:32:07;13.17;;;10.80;;
1414;SDS011;702;49.466;11.086;2023-11-19T04:34:35;12.93;;;10.90;;
1414;SDS011;702;49.466;11.086;2023-11-19T04:37:02;12.93;;;10.97;;
1414;SDS011;702;49.466;11.086;2023-11-19T04:39:30;13.23;;;10.83;;
1414;SDS011;702;49.466;11.086;2023-11-19T04:41:57;13.10;;;11.60;;
1414;SDS011;702;49.466;11.086;2023-11-19T04:44:26;13.80;;;11.30;;
1414;SDS011;702;49.466;11.086;2023-11-19T04:46:55;12.83;;;11.10;;
1414;SDS011;702;49.466;11.086;2023-11-19T04:49:22;12.90;;;11.03;;
1414;SDS011;702;49.466;11.086;2023-11-19T04:51:52;14.00;;;11.90;;
1414;SDS011;702;49.466;11.086;2023-11-19T04:54:19;14.20;;;11.60;;
1414;SDS011;702;49.466;11.086;2023-11-19T04:56:46;12.60;;;10.47;;
1414;SDS011;702;49.466;11.086;2023-11-19T04:59:14;13.57;;;10.33;;
1414;SDS011;702;49.466;11.086;2023-11-19T05:01:46;12.03;;;10.30;;
1414;SDS011;702;49.466;11.086;2023-11-19T05:04:13;12.73;;;10.10;;
1414;SDS011;702;49.466;11.086;2023-11-19T05:06:40;13.93;;;11.33;;
1414;SDS011;702;49.466;11.086;2023-11-19T05:09:07;13.60;;;11.07;;
1414;SDS011;702;49.466;11.086;2023-11-19T05:11:37;12.50;;;10.10;;
1414;SDS011;702;49.466;11.086;2023-11-19T05:14:05;11.90;;;10.60;;
1414;SDS011;702;49.466;11.086;2023-11-19T05:16:34;11.50;;;10.23;;
1414;SDS011;702;49.466;11.086;2023-11-19T05:19:03;11.97;;;9.73;;
1414;SDS011;702;49.466;11.086;2023-11-19T05:21:30;10.87;;;9.53;;
1414;SDS011;702;49.466;11.086;2023-11-19T05:23:57;12.17;;;10.37;;
1414;SDS011;702;49.466;11.086;2023-11-19T05:26:24;11.83;;;10.57;;
1414;SDS011;702;49.466;11.086;2023-11-19T05:28:52;11.57;;;9.60;;
1414;SDS011;702;49.466;11.086;2023-11-19T05:31:19;11.83;;;10.30;;
1414;SDS011;702;49.466;11.086;2023-11-19T05:33:46;12.53;;;10.80;;
1414;SDS011;702;49.466;11.086;2023-11-19T05:36:15;12.80;;;10.33;;
1414;SDS011;702;49.466;11.086;2023-11-19T05:38:42;10.93;;;9.67;;
1414;SDS011;702;49.466;11.086;2023-11-19T05:41:09;12.27;;;10.67;;
1414;SDS011;702;49.466;11.086;2023-11-19T05:43:37;14.03;;;11.50;;
1414;SDS011;702;49.466;11.086;2023-11-19T05:46:05;14.70;;;10.80;;
1414;SDS011;702;49.466;11.086;2023-11-19T05:48:34;12.23;;;10.10;;
1414;SDS011;702;49.466;11.086;2023-11-19T05:51:01;13.20;;;10.63;;
1414;SDS011;702;49.466;11.086;2023-11-19T05:53:29;13.50;;;10.23;;
1414;SDS011;702;49.466;11.086;2023-11-19T05:55:57;12.80;;;11.10;;
1414;SDS011;702;49.466;11.086;2023-11-19T05:58:28;11.87;;;10.10;;
1414;SDS011;702;49.466;11.086;2023-11-19T06:00:58;12.00;;;9.90;;
1414;SDS011;702;49.466;11.086;2023-11-19T06:03:27;11.57;;;9.63;;
1414;SDS011;702;49.466;11.086;2023-11-19T06:05:54;10.37;;;8.97;;
1414;SDS011;702;49.466;11.086;2023-11-19T06:08:22;11.47;;;10.00;;
1414;SDS011;702;49.466;11.086;2023-11-19T06:10:50;11.60;;;9.90;;
1414;SDS011;702;49.466;11.086;2023-11-19T06:13:18;12.17;;;10.00;;
1414;SDS011;702;49.466;11.086;2023-11-19T06:15:45;18.87;;;10.30;;
1414;SDS011;702;49.466;11.086;2023-11-19T06:18:12;13.13;;;10.60;;
1414;SDS011;702;49.466;11.086;2023-11-19T06:20:39;11.83;;;10.03;;
1414;SDS011;702;49.466;11.086;2023-11-19T06:23:07;11.13;;;9.00;;
1414;SDS011;702;49.466;11.086;2023-11-19T06:25:34;11.63;;;9.60;;
1414;SDS011;702;49.466;11.086;2023-11-19T06:28:03;11.50;;;9.00;;
1414;SDS011;702;49.466;11.086;2023-11-19T06:30:30;13.70;;;10.00;;
1414;SDS011;702;49.466;11.086;2023-11-19T06:32:57;12.97;;;10.43;;
1414;SDS011;702;49.466;11.086;2023-11-19T06:35:25;10.03;;;9.03;;
1414;SDS011;702;49.466;11.086;2023-11-19T06:37:54;11.30;;;9.70;;
1414;SDS011;702;49.466;11.086;2023-11-19T06:40:21;10.93;;;9.40;;
1414;SDS011;702;49.466;11.086;2023-11-19T06:42:48;10.60;;;8.80;;
1414;SDS011;702;49.466;11.086;2023-11-19T06:45:18;11.80;;;9.00;;
1414;SDS011;702;49.466;11.086;2023-11-19T06:47:46;11.97;;;9.63;;
1414;SDS011;702;49.466;11.086;2023-11-19T06:50:13;9.97;;;8.93;;
1414;SDS011;702;49.466;11.086;2023-11-19T06:52:41;11.80;;;9.40;;
1414;SDS011;702;49.466;11.086;2023-11-19T06:55:09;9.00;;;8.10;;
1414;SDS011;702;49.466;11.086;2023-11-19T06:57:36;12.20;;;9.53;;
1414;SDS011;702;49.466;11.086;2023-11-19T07:00:04;11.23;;;9.13;;
1414;SDS011;702;49.466;11.086;2023-11-19T07:02:35;11.80;;;8.33;;
1414;SDS011;702;49.466;11.086;2023-11-19T07:05:02;9.93;;;8.27;;
1414;SDS011;702;49.466;11.086;2023-11-19T07:07:31;9.67;;;8.00;;
1414;SDS011;702;49.466;11.086;2023-11-19T07:09:58;9.17;;;8.20;;
1414;SDS011;702;49.466;11.086;2023-11-19T07:12:25;9.00;;;7.60;;
1414;SDS011;702;49.466;11.086;2023-11-19T07:14:53;10.93;;;8.47;;
1414;SDS011;702;49.466;11.086;2023-11-19T07:17:21;8.67;;;7.60;;
1414;SDS011;702;49.466;11.086;2023-11-19T07:19:51;6.83;;;6.13;;
1414;SDS011;702;49.466;11.086;2023-11-19T07:22:18;9.23;;;6.80;;
1414;SDS011;702;49.466;11.086;2023-11-19T07:24:45;8.00;;;6.73;;
1414;SDS011;702;49.466;11.086;2023-11-19T07:27:12;8.30;;;6.30;;
1414;SDS011;702;49.466;11.086;2023-11-19T07:29:40;6.33;;;5.73;;
1414;SDS011;702;49.466;11.086;2023-11-19T07:32:10;6.23;;;5.63;;
1414;SDS011;702;49.466;11.086;2023-11-19T07:34:38;6.20;;;5.50;;
1414;SDS011;702;49.466;11.086;2023-11-19T07:37:07;5.23;;;4.73;;
1414;SDS011;702;49.466;11.086;2023-11-19T07:39:35;6.63;;;5.00;;
1414;SDS011;702;49.466;11.086;2023-11-19T07:42:06;6.50;;;5.77;;
1414;SDS011;702;49.466;11.086;2023-11-19T07:44:34;5.57;;;5.07;;
1414;SDS011;702;49.466;11.086;2023-11-19T07:47:02;6.03;;;5.13;;
1414;SDS011;702;49.466;11.086;2023-11-19T07:49:29;5.67;;;5.17;;
1414;SDS011;702;49.466;11.086;2023-11-19T07:51:57;7.47;;;5.00;;
1414;SDS011;702;49.466;11.086;2023-11-19T07:54:26;6.10;;;5.60;;
1414;SDS011;702;49.466;11.086;2023-11-19T07:56:53;4.63;;;4.23;;
1414;SDS011;702;49.466;11.086;2023-11-19T07:59:20;4.47;;;4.07;;
1414;SDS011;702;49.466;11.086;2023-11-19T08:01:47;5.10;;;4.60;;
1414;SDS011;702;49.466;11.086;2023-11-19T08:04:14;6.47;;;4.93;;
1414;SDS011;702;49.466;11.086;2023-11-19T08:06:43;4.53;;;3.97;;
1414;SDS011;702;49.466;11.086;2023-11-19T08:09:10;4.30;;;3.90;;
1414;SDS011;702;49.466;11.086;2023-11-19T08:11:40;6.30;;;5.07;;
1414;SDS011;702;49.466;11.086;2023-11-19T08:14:07;4.50;;;4.03;;
1414;SDS011;702;49.466;11.086;2023-11-19T08:16:35;3.70;;;2.63;;
1414;SDS011;702;49.466;11.086;2023-11-19T08:19:03;3.20;;;2.90;;
1414;SDS011;702;49.466;11.086;2023-11-19T08:21:30;3.10;;;2.80;;
1414;SDS011;702;49.466;11.086;2023-11-19T08:23:57;1.73;;;1.63;;
1414;SDS011;702;49.466;11.086;2023-11-19T08:26:25;2.93;;;2.30;;
1414;SDS011;702;49.466;11.086;2023-11-19T08:28:54;2.27;;;1.63;;
1414;SDS011;702;49.466;11.086;2023-11-19T08:31:24;2.60;;;1.53;;
1414;SDS011;702;49.466;11.086;2023-11-19T08:33:51;1.60;;;1.50;;
1414;SDS011;702;49.466;11.086;2023-11-19T08:36:18;2.00;;;1.80;;
1414;SDS011;702;49.466;11.086;2023-11-19T08:38:46;1.60;;;1.50;;
1414;SDS011;702;49.466;11.086;2023-11-19T08:41:13;1.73;;;1.33;;
1414;SDS011;702;49.466;11.086;2023-11-19T08:43:43;1.60;;;1.50;;
1414;SDS011;702;49.466;11.086;2023-11-19T08:46:14;2.37;;;1.60;;
1414;SDS011;702;49.466;11.086;2023-11-19T08:48:41;1.50;;;1.20;;
1414;SDS011;702;49.466;11.086;2023-11-19T08:51:08;2.63;;;1.40;;
1414;SDS011;702;49.466;11.086;2023-11-19T08:53:36;1.17;;;1.10;;
1414;SDS011;702;49.466;11.086;2023-11-19T08:56:03;2.60;;;1.50;;
1414;SDS011;702;49.466;11.086;2023-11-19T08:58:31;3.23;;;1.50;;
1414;SDS011;702;49.466;11.086;2023-11-19T09:00:58;1.60;;;1.50;;
1414;SDS011;702;49.466;11.086;2023-11-19T09:03:27;2.27;;;1.40;;
1414;SDS011;702;49.466;11.086;2023-11-19T09:05:57;2.07;;;1.87;;
1414;SDS011;702;49.466;11.086;2023-11-19T09:08:24;1.63;;;1.53;;
1414;SDS011;702;49.466;11.086;2023-11-19T09:10:52;3.43;;;1.63;;
1414;SDS011;702;49.466;11.086;2023-11-19T09:13:19;2.90;;;1.40;;
1414;SDS011;702;49.466;11.086;2023-11-19T09:15:46;2.80;;;1.53;;
1414;SDS011;702;49.466;11.086;2023-11-19T09:18:13;1.97;;;1.50;;
1414;SDS011;702;49.466;11.086;2023-11-19T09:20:41;3.37;;;1.33;;
1414;SDS011;702;49.466;11.086;2023-11-19T09:23:09;2.30;;;1.20;;
1414;SDS011;702;49.466;11.086;2023-11-19T09:25:37;3.13;;;1.63;;
1414;SDS011;702;49.466;11.086;2023-11-19T09:28:05;1.07;;;1.00;;
1414;SDS011;702;49.466;11.086;2023-11-19T09:30:33;0.90;;;0.90;;
1414;SDS011;702;49.466;11.086;2023-11-19T09:33:00;1.20;;;0.90;;
1414;SDS011;702;49.466;11.086;2023-11-19T09:35:28;1.83;;;1.10;;
1414;SDS011;702;49.466;11.086;2023-11-19T09:37:57;1.30;;;0.90;;
1414;SDS011;702;49.466;11.086;2023-11-19T09:40:24;1.40;;;1.00;;
1414;SDS011;702;49.466;11.086;2023-11-19T09:42:53;1.40;;;1.30;;
1414;SDS011;702;49.466;11.086;2023-11-19T09:45:21;1.00;;;0.90;;
1414;SDS011;702;49.466;11.086;2023-11-19T09:47:52;5.30;;;1.30;;
1414;SDS011;702;49.466;11.086;2023-11-19T09:50:22;8.37;;;0.90;;
1414;SDS011;702;49.466;11.086;2023-11-19T09:52:50;1.17;;;0.93;;
1414;SDS011;702;49.466;11.086;2023-11-19T09:55:19;1.60;;;0.90;;
1414;SDS011;702;49.466;11.086;2023-11-19T09:57:46;3.07;;;1.00;;
1414;SDS011;702;49.466;11.086;2023-11-19T10:00:16;1.73;;;0.90;;
1414;SDS011;702;49.466;11.086;2023-11-19T10:02:45;1.37;;;0.97;;
1414;SDS011;702;49.466;11.086;2023-11-19T10:05:16;2.10;;;0.70;;
1414;SDS011;702;49.466;11.086;2023-11-19T10:07:47;1.33;;;0.67;;
1414;SDS011;702;49.466;11.086;2023-11-19T10:10:14;2.50;;;1.20;;
1414;SDS011;702;49.466;11.086;2023-11-19T10:12:45;2.60;;;1.10;;
1414;SDS011;702;49.466;11.086;2023-11-19T10:15:16;1.93;;;1.00;;
1414;SDS011;702;49.466;11.086;2023-11-19T10:17:47;2.70;;;0.77;;
1414;SDS011;702;49.466;11.086;2023-11-19T10:20:15;0.93;;;0.80;;
1414;SDS011;702;49.466;11.086;2023-11-19T10:22:42;2.30;;;1.03;;
1414;SDS011;702;49.466;11.086;2023-11-19T10:25:21;1.30;;;0.90;;
1414;SDS011;702;49.466;11.086;2023-11-19T10:27:51;1.17;;;0.80;;
1414;SDS011;702;49.466;11.086;2023-11-19T10:30:20;1.10;;;0.70;;
1414;SDS011;702;49.466;11.086;2023-11-19T10:33:02;1.57;;;0.90;;
1414;SDS011;702;49.466;11.086;2023-11-19T10:35:31;1.17;;;0.87;;
1414;SDS011;702;49.466;11.086;2023-11-19T10:37:59;1.13;;;0.90;;
1414;SDS011;702;49.466;11.086;2023-11-19T10:40:40;1.97;;;0.80;;
1414;SDS011;702;49.466;11.086;2023-11-19T10:43:08;3.03;;;1.10;;
1414;SDS011;702;49.466;11.086;2023-11-19T10:45:36;1.67;;;0.90;;
1414;SDS011;702;49.466;11.086;2023-11-19T10:48:05;1.67;;;1.30;;
1414;SDS011;702;49.466;11.086;2023-11-19T10:50:33;1.40;;;0.90;;
1414;SDS011;702;49.466;11.086;2023-11-19T10:53:01;0.90;;;0.80;;
1414;SDS011;702;49.466;11.086;2023-11-19T10:55:30;0.87;;;0.80;;
1414;SDS011;702;49.466;11.086;2023-11-19T10:58:01;1.40;;;1.20;;
1414;SDS011;702;49.466;11.086;2023-11-19T11:00:34;1.23;;;0.80;;
1414;SDS011;702;49.466;11.086;2023-11-19T11:03:08;1.03;;;0.90;;
1414;SDS011;702;49.466;11.086;2023-11-19T11:05:41;0.97;;;0.90;;
1414;SDS011;702;49.466;11.086;2023-11-19T11:08:13;2.10;;;1.07;;
1414;SDS011;702;49.466;11.086;2023-11-19T11:10:42;3.00;;;0.90;;
1414;SDS011;702;49.466;11.086;2023-11-19T11:13:13;2.60;;;1.27;;
1414;SDS011;702;49.466;11.086;2023-11-19T11:15:42;2.93;;;1.40;;
1414;SDS011;702;49.466;11.086;2023-11-19T11:18:12;3.10;;;0.70;;
1414;SDS011;702;49.466;11.086;2023-11-19T11:20:40;1.27;;;0.90;;
1414;SDS011;702;49.466;11.086;2023-11-19T11:23:17;1.63;;;1.00;;
1414;SDS011;702;49.466;11.086;2023-11-19T11:26:07;1.67;;;1.00;;
1414;SDS011;702;49.466;11.086;2023-11-19T11:29:02;1.70;;;1.10;;
1414;SDS011;702;49.466;11.086;2023-11-19T11:31:39;2.90;;;1.10;;
1414;SDS011;702;49.466;11.086;2023-11-19T11:34:19;2.20;;;0.80;;
1414;SDS011;702;49.466;11.086;2023-11-19T11:37:17;2.60;;;1.17;;
1414;SDS011;702;49.466;11.086;2023-11-19T11:39:49;3.13;;;1.17;;
1414;SDS011;702;49.466;11.086;2023-11-19T11:42:32;2.20;;;1.20;;
1414;SDS011;702;49.466;11.086;2023-11-19T11:45:01;1.77;;;1.03;;
1414;SDS011;702;49.466;11.086;2023-11-19T11:50:47;1.57;;;1.20;;
1414;SDS011;702;49.466;11.086;2023-11-19T11:53:16;2.20;;;1.33;;
1414;SDS011;702;49.466;11.086;2023-11-19T11:55:54;2.57;;;1.10;;
1414;SDS011;702;49.466;11.086;2023-11-19T11:58:29;2.63;;;1.10;;
1414;SDS011;702;49.466;11.086;2023-11-19T12:00:58;1.83;;;1.00;;
1414;SDS011;702;49.466;11.086;2023-11-19T12:03:29;5.50;;;0.90;;
1414;SDS011;702;49.466;11.086;2023-11-19T12:05:59;2.60;;;1.10;;
1414;SDS011;702;49.466;11.086;2023-11-19T12:08:26;5.20;;;1.33;;
1414;SDS011;702;49.466;11.086;2023-11-19T12:10:57;2.20;;;1.30;;
1414;SDS011;702;49.466;11.086;2023-11-19T12:13:29;3.47;;;1.73;;
1414;SDS011;702;49.466;11.086;2023-11-19T12:16:14;1.37;;;1.17;;
1414;SDS011;702;49.466;11.086;2023-11-19T12:18:43;1.43;;;1.00;;
1414;SDS011;702;49.466;11.086;2023-11-19T12:21:10;2.23;;;1.17;;
1414;SDS011;702;49.466;11.086;2023-11-19T12:23:44;1.40;;;1.27;;
1414;SDS011;702;49.466;11.086;2023-11-19T12:26:32;1.50;;;1.40;;
1414;SDS011;702;49.466;11.086;2023-11-19T12:29:00;5.63;;;1.40;;
1414;SDS011;702;49.466;11.086;2023-11-19T12:31:32;2.77;;;1.90;;
1414;SDS011;702;49.466;11.086;2023-11-19T12:34:09;2.80;;;1.30;;
1414;SDS011;702;49.466;11.086;2023-11-19T12:36:38;2.80;;;1.50;;
1414;SDS011;702;49.466;11.086;2023-11-19T12:39:07;2.00;;;0.90;;
1414;SDS011;702;49.466;11.086;2023-11-19T12:41:50;1.60;;;1.13;;
1414;SDS011;702;49.466;11.086;2023-11-19T12:44:19;5.40;;;1.40;;
1414;SDS011;702;49.466;11.086;2023-11-19T12:46:58;2.43;;;2.00;;
1414;SDS011;702;49.466;11.086;2023-11-19T12:49:29;2.27;;;1.70;;
1414;SDS011;702;49.466;11.086;2023-11-19T12:51:56;1.23;;;1.10;;
1414;SDS011;702;49.466;11.086;2023-11-19T12:54:31;2.77;;;1.17;;
1414;SDS011;702;49.466;11.086;2023-11-19T12:57:00;0.97;;;0.97;;
1414;SDS011;702;49.466;11.086;2023-11-19T12:59:27;1.50;;;1.33;;
1414;SDS011;702;49.466;11.086;2023-11-19T13:01:55;0.90;;;0.80;;
1414;SDS011;702;49.466;11.086;2023-11-19T13:04:23;4.30;;;1.10;;
1414;SDS011;702;49.466;11.086;2023-11-19T13:06:56;1.57;;;0.87;;
1414;SDS011;702;49.466;11.086;2023-11-19T13:09:24;1.10;;;0.90;;
1414;SDS011;702;49.466;11.086;2023-11-19T13:11:52;1.17;;;0.77;;
1414;SDS011;702;49.466;11.086;2023-11-19T13:14:20;5.93;;;1.30;;
1414;SDS011;702;49.466;11.086;2023-11-19T13:16:48;1.50;;;0.80;;
1414;SDS011;702;49.466;11.086;2023-11-19T13:19:15;1.10;;;1.00;;
1414;SDS011;702;49.466;11.086;2023-11-19T13:21:46;2.00;;;0.93;;
1414;SDS011;702;49.466;11.086;2023-11-19T13:24:13;3.27;;;1.27;;
1414;SDS011;702;49.466;11.086;2023-11-19T13:26:41;1.47;;;0.80;;
1414;SDS011;702;49.466;11.086;2023-11-19T13:29:08;1.40;;;0.70;;
1414;SDS011;702;49.466;11.086;2023-11-19T13:31:36;1.60;;;1.13;;
1414;SDS011;702;49.466;11.086;2023-11-19T13:34:04;2.60;;;1.00;;
1414;SDS011;702;49.466;11.086;2023-11-19T13:36:32;3.43;;;1.43;;
1414;SDS011;702;49.466;11.086;2023-11-19T13:39:01;2.77;;;1.17;;
1414;SDS011;702;49.466;11.086;2023-11-19T13:41:29;3.30;;;1.00;;
1414;SDS011;702;49.466;11.086;2023-11-19T13:43:56;0.80;;;0.80;;
1414;SDS011;702;49.466;11.086;2023-11-19T13:46:24;1.10;;;0.90;;
1414;SDS011;702;49.466;11.086;2023-11-19T13:48:51;2.63;;;1.53;;
1414;SDS011;702;49.466;11.086;2023-11-19T13:51:18;1.13;;;1.00;;
1414;SDS011;702;49.466;11.086;2023-11-19T13:53:46;2.87;;;1.50;;
1414;SDS011;702;49.466;11.086;2023-11-19T13:56:14;1.37;;;1.07;;
1414;SDS011;702;49.466;11.086;2023-11-19T13:58:43;2.13;;;1.10;;
1414;SDS011;702;49.466;11.086;2023-11-19T14:01:10;2.13;;;1.40;;
1414;SDS011;702;49.466;11.086;2023-11-19T14:03:39;2.13;;;0.80;;
1414;SDS011;702;49.466;11.086;2023-11-19T14:06:06;1.87;;;0.90;;
1414;SDS011;702;49.466;11.086;2023-11-19T14:08:35;1.80;;;1.17;;
1414;SDS011;702;49.466;11.086;2023-11-19T14:11:02;2.23;;;1.13;;
1414;SDS011;702;49.466;11.086;2023-11-19T14:13:32;3.37;;;1.37;;
1414;SDS011;702;49.466;11.086;2023-11-19T14:15:59;1.20;;;1.10;;
1414;SDS011;702;49.466;11.086;2023-11-19T14:18:27;1.30;;;1.20;;
1414;SDS011;702;49.466;11.086;2023-11-19T14:20:54;3.23;;;1.43;;
1414;SDS011;702;49.466;11.086;2023-11-19T14:23:21;2.70;;;1.20;;
1414;SDS011;702;49.466;11.086;2023-11-19T14:25:49;1.43;;;0.90;;
1414;SDS011;702;49.466;11.086;2023-11-19T14:28:17;1.20;;;0.80;;
1414;SDS011;702;49.466;11.086;2023-11-19T14:30:46;2.77;;;1.03;;
1414;SDS011;702;49.466;11.086;2023-11-19T14:33:18;2.10;;;0.97;;
1414;SDS011;702;49.466;11.086;2023-11-19T14:35:46;2.10;;;0.97;;
1414;SDS011;702;49.466;11.086;2023-11-19T14:38:13;1.20;;;0.60;;
1414;SDS011;702;49.466;11.086;2023-11-19T14:40:41;3.73;;;1.53;;
1414;SDS011;702;49.466;11.086;2023-11-19T14:43:08;3.43;;;1.50;;
1414;SDS011;702;49.466;11.086;2023-11-19T14:45:36;4.50;;;1.27;;
1414;SDS011;702;49.466;11.086;2023-11-19T14:48:05;3.33;;;1.90;;
1414;SDS011;702;49.466;11.086;2023-11-19T14:50:32;1.40;;;1.10;;
1414;SDS011;702;49.466;11.086;2023-11-19T14:53:00;1.10;;;0.70;;
1414;SDS011;702;49.466;11.086;2023-11-19T14:55:27;1.33;;;1.00;;
1414;SDS011;702;49.466;11.086;2023-11-19T14:57:54;3.37;;;1.10;;
1414;SDS011;702;49.466;11.086;2023-11-19T15:00:22;3.90;;;1.40;;
1414;SDS011;702;49.466;11.086;2023-11-19T15:02:50;2.30;;;1.00;;
1414;SDS011;702;49.466;11.086;2023-11-19T15:05:19;3.67;;;0.90;;
1414;SDS011;702;49.466;11.086;2023-11-19T15:07:46;2.83;;;1.70;;
1414;SDS011;702;49.466;11.086;2023-11-19T15:10:13;1.53;;;0.83;;
1414;SDS011;702;49.466;11.086;2023-11-19T15:12:40;1.50;;;1.13;;
1414;SDS011;702;49.466;11.086;2023-11-19T15:15:08;1.87;;;1.57;;
1414;SDS011;702;49.466;11.086;2023-11-19T15:17:38;1.33;;;1.10;;
1414;SDS011;702;49.466;11.086;2023-11-19T15:20:07;2.30;;;1.13;;
1414;SDS011;702;49.466;11.086;2023-11-19T15:22:37;1.50;;;1.10;;
1414;SDS011;702;49.466;11.086;2023-11-19T15:25:04;1.50;;;1.23;;